Grahamville, Vermont
Current Conditions -  °F | °C
As of 5:54 PM on Wednesday 26 Nov 2014 (Local Time) from KVSF Reporting Station
Moderate Snow Moderate Snow  
Wind Chill: 25°   Ceiling: 600
Heat Index: 31°   Visibility: 0.5mi
Dew Point: 29°   Wind: 6mph
Humidity: 92%   Direction: NA
Pressure: 29.97"   Gusts: NA
Location:  43.3729°N, 72.7116°W
Report Text: KVSF 262254Z AUTO VRB05KT 1/2SM SN FZFG VV006 M01/M02 A2997 RMK AO2 SLP157 P0012 T10061017
Loading
Personal Weather Stations






























Interactive Weather Map New forecast layout! Learn more

10-Day Weather Forecast

Advertisements
Track Severe Weather on mobile